createdAt,value
2023-03-26T00:02:18.739Z,17.40
2023-03-26T00:05:41.751Z,18.23
2023-03-26T00:09:07.150Z,18.50
2023-03-26T00:12:29.549Z,18.10
2023-03-26T00:15:53.514Z,17.73
2023-03-26T00:19:19.073Z,18.98
2023-03-26T00:22:41.828Z,19.15
2023-03-26T00:26:05.298Z,21.20
2023-03-26T00:29:28.174Z,19.40
2023-03-26T00:32:53.522Z,21.35
2023-03-26T00:36:20.837Z,18.45
2023-03-26T00:39:44.680Z,19.83
2023-03-26T00:43:18.689Z,20.65
2023-03-26T00:46:41.121Z,19.52
2023-03-26T00:50:15.683Z,19.60
2023-03-26T00:53:39.152Z,19.83
2023-03-26T00:57:01.987Z,18.02
2023-03-26T01:00:36.855Z,18.70
2023-03-26T01:04:24.602Z,19.17
2023-03-26T01:07:46.896Z,18.13
2023-03-26T01:11:25.556Z,18.33
2023-03-26T01:15:00.912Z,17.67
2023-03-26T01:18:27.407Z,18.95
2023-03-26T01:21:50.099Z,18.23
2023-03-26T01:25:13.016Z,19.35
2023-03-26T01:28:41.543Z,19.45
2023-03-26T01:32:16.656Z,18.52
2023-03-26T01:36:16.361Z,18.10
2023-03-26T01:39:53.479Z,17.92
2023-03-26T01:43:28.112Z,18.35
2023-03-26T01:46:54.357Z,18.85
2023-03-26T01:50:17.003Z,18.55
2023-03-26T01:53:44.180Z,19.20
2023-03-26T01:57:25.573Z,19.13
2023-03-26T02:01:02.440Z,18.70
2023-03-26T02:04:28.978Z,19.05
2023-03-26T02:08:22.822Z,18.55
2023-03-26T02:11:49.816Z,16.38
2023-03-26T02:15:12.806Z,18.23
2023-03-26T02:18:41.571Z,16.25
2023-03-26T02:22:04.536Z,18.20
2023-03-26T02:25:27.836Z,17.20
2023-03-26T02:28:50.707Z,18.83
2023-03-26T02:32:15.476Z,17.73
2023-03-26T02:35:38.652Z,17.45
2023-03-26T02:39:01.009Z,17.30
2023-03-26T02:42:26.593Z,17.88
2023-03-26T02:45:48.943Z,16.83
2023-03-26T02:49:31.266Z,17.90
2023-03-26T02:52:53.664Z,17.30
2023-03-26T02:56:16.171Z,19.48
2023-03-26T02:59:53.054Z,18.38
2023-03-26T03:03:38.317Z,19.02
2023-03-26T03:07:39.723Z,18.08
2023-03-26T03:11:12.697Z,18.80
2023-03-26T03:14:44.394Z,21.00
2023-03-26T03:18:10.391Z,17.77
2023-03-26T03:21:32.978Z,20.38
2023-03-26T03:24:57.913Z,19.73
2023-03-26T03:28:20.281Z,19.73
2023-03-26T03:31:42.831Z,18.42
2023-03-26T03:35:16.493Z,18.58
2023-03-26T03:38:44.873Z,16.67
2023-03-26T03:42:11.840Z,18.15
2023-03-26T03:45:34.853Z,17.98
2023-03-26T03:49:23.799Z,18.85
2023-03-26T03:52:46.671Z,16.95
2023-03-26T03:56:11.753Z,17.40
2023-03-26T03:59:54.164Z,17.25
2023-03-26T04:03:17.259Z,16.48
2023-03-26T04:06:39.948Z,18.40
2023-03-26T04:10:04.777Z,17.13
2023-03-26T04:13:46.759Z,16.90
2023-03-26T04:17:17.895Z,16.55
2023-03-26T04:20:46.644Z,17.17
2023-03-26T04:24:15.032Z,15.82
2023-03-26T04:28:07.358Z,17.52
2023-03-26T04:31:50.432Z,16.27
2023-03-26T04:35:16.689Z,16.92
2023-03-26T04:38:52.040Z,16.38
2023-03-26T04:42:33.012Z,16.92
2023-03-26T04:46:07.882Z,17.75
2023-03-26T04:49:37.151Z,18.35
2023-03-26T04:53:08.407Z,18.90
2023-03-26T04:56:57.604Z,18.83
2023-03-26T05:00:26.244Z,19.42
2023-03-26T05:03:53.378Z,20.17
2023-03-26T05:07:19.948Z,19.95
2023-03-26T05:10:48.668Z,21.48
2023-03-26T05:14:18.997Z,22.48
2023-03-26T05:17:44.326Z,22.20
2023-03-26T05:21:15.060Z,20.65
2023-03-26T05:24:56.362Z,19.88
2023-03-26T05:28:20.789Z,19.67
2023-03-26T05:32:06.746Z,21.13
2023-03-26T05:35:28.987Z,19.73
2023-03-26T05:38:52.439Z,20.83
2023-03-26T05:42:51.328Z,23.00
2023-03-26T05:46:25.764Z,23.27
2023-03-26T05:49:48.304Z,22.48
2023-03-26T05:53:10.554Z,19.90
2023-03-26T05:56:53.006Z,19.20
2023-03-26T06:00:33.874Z,18.85
2023-03-26T06:04:00.387Z,19.52
2023-03-26T06:07:37.666Z,22.67
2023-03-26T06:11:12.654Z,18.50
2023-03-26T06:14:34.911Z,16.60
2023-03-26T06:18:07.010Z,16.70
2023-03-26T06:21:51.559Z,13.98
2023-03-26T06:25:17.283Z,13.85
2023-03-26T06:28:57.744Z,8.30
2023-03-26T06:32:33.648Z,6.00
2023-03-26T06:36:01.593Z,5.50
2023-03-26T06:39:24.186Z,5.20
2023-03-26T06:43:48.354Z,5.03
2023-03-26T06:47:19.370Z,5.53
2023-03-26T06:54:46.566Z,5.28
2023-03-26T06:58:27.374Z,6.03
2023-03-26T07:02:15.808Z,5.53
2023-03-26T07:09:38.516Z,4.63
2023-03-26T07:13:23.347Z,4.28
2023-03-26T07:17:12.411Z,4.03
2023-03-26T07:21:10.347Z,4.50
2023-03-26T07:24:32.622Z,4.97
2023-03-26T07:28:29.647Z,4.70
2023-03-26T07:32:37.733Z,4.63
2023-03-26T07:36:54.703Z,4.88
2023-03-26T07:41:18.362Z,5.07
2023-03-26T07:45:03.091Z,5.25
2023-03-26T07:48:48.357Z,5.70
2023-03-26T07:52:35.216Z,5.30
2023-03-26T07:55:59.974Z,5.28
2023-03-26T07:59:57.804Z,5.55
2023-03-26T08:04:23.689Z,5.10
2023-03-26T08:08:13.855Z,5.63
2023-03-26T08:12:26.731Z,5.10
2023-03-26T08:16:30.367Z,5.40
2023-03-26T08:20:11.054Z,5.35
2023-03-26T08:23:55.838Z,5.03
2023-03-26T08:27:55.263Z,5.88
2023-03-26T08:31:33.398Z,5.53
2023-03-26T08:35:00.537Z,4.72
2023-03-26T08:38:24.493Z,5.35
2023-03-26T08:42:20.221Z,4.53
2023-03-26T08:46:00.359Z,5.00
2023-03-26T08:49:40.182Z,4.73
2023-03-26T08:53:16.095Z,4.63
2023-03-26T08:57:07.188Z,4.47
2023-03-26T09:00:50.840Z,5.70
2023-03-26T09:04:49.955Z,4.57
2023-03-26T09:08:30.383Z,4.75
2023-03-26T09:12:25.493Z,3.28
2023-03-26T09:16:06.487Z,4.13
2023-03-26T09:19:50.020Z,3.42
2023-03-26T09:23:26.352Z,3.72
2023-03-26T09:27:37.388Z,3.10
2023-03-26T09:31:19.339Z,3.20
2023-03-26T09:35:12.612Z,2.25
2023-03-26T09:38:47.701Z,1.45
2023-03-26T09:42:24.554Z,1.30
2023-03-26T09:46:21.353Z,1.40
2023-03-26T09:50:19.273Z,1.67
2023-03-26T09:54:01.901Z,1.40
2023-03-26T09:57:36.080Z,2.00
2023-03-26T10:05:30.318Z,2.25
2023-03-26T10:08:52.503Z,2.17
2023-03-26T10:12:40.505Z,2.05
2023-03-26T10:16:14.851Z,1.73
2023-03-26T10:19:51.432Z,1.80
2023-03-26T10:23:25.942Z,2.05
2023-03-26T10:27:18.760Z,2.92
2023-03-26T10:31:08.574Z,2.03
2023-03-26T10:35:08.199Z,2.67
2023-03-26T10:38:59.382Z,2.40
2023-03-26T10:42:50.896Z,2.33
2023-03-26T10:46:35.630Z,2.40
2023-03-26T10:53:54.819Z,3.03
2023-03-26T10:57:35.320Z,3.50
2023-03-26T11:01:06.116Z,2.85
2023-03-26T11:05:04.227Z,2.97
2023-03-26T11:08:35.662Z,2.78
2023-03-26T11:12:03.541Z,2.55
2023-03-26T11:15:56.856Z,2.95
2023-03-26T11:19:39.114Z,3.08
2023-03-26T11:23:22.284Z,3.35
2023-03-26T11:26:56.563Z,2.85
2023-03-26T11:30:55.126Z,3.05
2023-03-26T11:34:28.624Z,2.33
2023-03-26T11:38:01.007Z,3.20
2023-03-26T11:41:28.824Z,2.90
2023-03-26T11:45:24.312Z,2.63
2023-03-26T11:48:52.680Z,2.72
2023-03-26T11:52:15.830Z,2.30
2023-03-26T11:55:41.283Z,2.35
2023-03-26T11:59:14.839Z,2.15
2023-03-26T12:02:47.405Z,1.90
2023-03-26T12:06:29.197Z,2.08
2023-03-26T12:10:18.515Z,1.85
2023-03-26T12:13:44.867Z,1.77
2023-03-26T12:17:11.958Z,2.35
2023-03-26T12:20:36.734Z,2.20
2023-03-26T12:24:05.203Z,2.20
2023-03-26T12:27:33.860Z,1.83
2023-03-26T12:31:13.823Z,2.15
2023-03-26T12:34:38.371Z,2.43
2023-03-26T12:38:19.237Z,2.40
2023-03-26T12:45:31.863Z,2.15
2023-03-26T12:49:03.774Z,1.88
2023-03-26T12:52:39.653Z,1.77
2023-03-26T12:56:12.430Z,1.77
2023-03-26T13:00:06.295Z,2.30
2023-03-26T13:03:47.124Z,1.77
2023-03-26T13:07:27.871Z,1.73
2023-03-26T13:10:52.646Z,1.73
2023-03-26T13:14:17.320Z,1.85
2023-03-26T13:17:42.349Z,2.22
2023-03-26T13:21:22.108Z,2.20
2023-03-26T13:24:49.636Z,2.50
2023-03-26T13:28:48.975Z,1.67
2023-03-26T13:32:34.699Z,1.90
2023-03-26T13:36:24.213Z,1.95
2023-03-26T13:40:15.556Z,2.38
2023-03-26T13:44:11.189Z,2.20
2023-03-26T13:47:38.270Z,1.48
2023-03-26T13:51:15.459Z,2.53
2023-03-26T13:54:45.885Z,2.47
2023-03-26T13:58:10.976Z,2.15
2023-03-26T14:01:41.321Z,2.38
2023-03-26T14:05:17.631Z,2.13
2023-03-26T14:08:47.251Z,2.60
2023-03-26T14:12:32.373Z,2.15
2023-03-26T14:16:15.064Z,2.35
2023-03-26T14:19:52.252Z,2.63
2023-03-26T14:23:52.962Z,2.22
2023-03-26T14:27:49.300Z,2.95
2023-03-26T14:31:15.154Z,2.92
2023-03-26T14:35:04.826Z,3.10
2023-03-26T14:38:44.654Z,3.30
2023-03-26T14:42:33.399Z,3.33
2023-03-26T14:46:17.030Z,2.97
2023-03-26T14:49:46.106Z,3.05
2023-03-26T14:53:22.781Z,3.03
2023-03-26T14:57:10.913Z,3.30
2023-03-26T15:01:09.955Z,2.85
2023-03-26T15:04:43.750Z,3.70
2023-03-26T15:08:24.290Z,5.05
2023-03-26T15:12:33.374Z,5.40
2023-03-26T15:16:04.584Z,5.13
2023-03-26T15:20:04.185Z,5.43
2023-03-26T15:23:38.255Z,4.28
2023-03-26T15:27:24.653Z,6.22
2023-03-26T15:31:09.983Z,6.55
2023-03-26T15:34:58.310Z,5.47
2023-03-26T15:38:31.985Z,5.25
2023-03-26T15:42:07.641Z,5.35
2023-03-26T15:45:59.189Z,5.85
2023-03-26T15:53:14.656Z,3.97
2023-03-26T15:56:54.756Z,2.78
2023-03-26T16:00:23.286Z,3.97
2023-03-26T16:03:57.133Z,4.00
2023-03-26T16:07:43.785Z,9.13
2023-03-26T16:11:12.623Z,3.70
2023-03-26T16:14:34.734Z,3.58
2023-03-26T16:18:12.297Z,3.42
2023-03-26T16:21:43.424Z,5.20
2023-03-26T16:25:27.223Z,3.65
2023-03-26T16:28:52.860Z,4.00
2023-03-26T16:32:28.962Z,3.28
2023-03-26T16:36:26.051Z,2.42
2023-03-26T16:39:48.609Z,2.90
2023-03-26T16:43:58.309Z,2.55
2023-03-26T16:47:28.681Z,2.30
2023-03-26T16:51:17.094Z,2.90
2023-03-26T16:54:43.555Z,2.22
2023-03-26T16:58:15.474Z,1.52
2023-03-26T17:01:50.005Z,1.88
2023-03-26T17:05:36.855Z,2.10
2023-03-26T17:09:17.773Z,2.50
2023-03-26T17:12:46.488Z,1.65
2023-03-26T17:16:26.822Z,1.83
2023-03-26T17:19:52.021Z,2.17
2023-03-26T17:23:19.702Z,1.80
2023-03-26T17:26:51.070Z,2.80
2023-03-26T17:30:41.132Z,1.85
2023-03-26T17:34:49.374Z,2.85
2023-03-26T17:38:17.696Z,3.40
2023-03-26T17:41:55.486Z,2.70
2023-03-26T17:45:20.600Z,3.40
2023-03-26T17:48:47.986Z,3.00
2023-03-26T17:52:58.938Z,3.28
2023-03-26T17:56:27.791Z,4.60
2023-03-26T17:59:53.124Z,5.10
2023-03-26T18:03:23.197Z,3.75
2023-03-26T18:10:33.429Z,3.30
2023-03-26T18:14:14.356Z,2.70
2023-03-26T18:17:43.177Z,5.93
2023-03-26T18:21:07.253Z,5.50
2023-03-26T18:24:37.115Z,4.63
2023-03-26T18:28:02.136Z,4.35
2023-03-26T18:31:26.518Z,4.45
2023-03-26T18:34:53.342Z,3.70
2023-03-26T18:38:35.696Z,3.50
2023-03-26T18:42:00.562Z,4.43
2023-03-26T18:45:23.233Z,3.80
